sensor_id;sensor_type;location;lat;lon;timestamp;P1;durP1;ratioP1;P2;durP2;ratioP2
32826;SDS011;51059;42.058;27.986;2023-03-14T00:00:59;5.17;;;3.53;;
32826;SDS011;51059;42.058;27.986;2023-03-14T00:03:25;5.60;;;3.47;;
32826;SDS011;51059;42.058;27.986;2023-03-14T00:05:50;6.30;;;2.97;;
32826;SDS011;51059;42.058;27.986;2023-03-14T00:08:16;7.60;;;3.60;;
32826;SDS011;51059;42.058;27.986;2023-03-14T00:10:43;4.73;;;2.87;;
32826;SDS011;51059;42.058;27.986;2023-03-14T00:13:08;9.00;;;3.57;;
32826;SDS011;51059;42.058;27.986;2023-03-14T00:15:34;9.43;;;4.80;;
32826;SDS011;51059;42.058;27.986;2023-03-14T00:18:00;8.17;;;4.33;;
32826;SDS011;51059;42.058;27.986;2023-03-14T00:20:26;12.60;;;4.90;;
32826;SDS011;51059;42.058;27.986;2023-03-14T00:22:52;10.23;;;4.50;;
32826;SDS011;51059;42.058;27.986;2023-03-14T00:25:17;13.63;;;4.93;;
32826;SDS011;51059;42.058;27.986;2023-03-14T00:27:43;10.93;;;5.03;;
32826;SDS011;51059;42.058;27.986;2023-03-14T00:30:09;13.70;;;4.23;;
32826;SDS011;51059;42.058;27.986;2023-03-14T00:32:35;7.57;;;4.37;;
32826;SDS011;51059;42.058;27.986;2023-03-14T00:35:01;8.70;;;4.53;;
32826;SDS011;51059;42.058;27.986;2023-03-14T00:37:28;7.40;;;4.03;;
32826;SDS011;51059;42.058;27.986;2023-03-14T00:39:53;9.37;;;4.23;;
32826;SDS011;51059;42.058;27.986;2023-03-14T00:42:19;6.87;;;4.10;;
32826;SDS011;51059;42.058;27.986;2023-03-14T00:44:45;8.20;;;3.67;;
32826;SDS011;51059;42.058;27.986;2023-03-14T00:47:10;7.73;;;3.50;;
32826;SDS011;51059;42.058;27.986;2023-03-14T00:49:36;8.93;;;3.60;;
32826;SDS011;51059;42.058;27.986;2023-03-14T00:52:02;5.33;;;3.37;;
32826;SDS011;51059;42.058;27.986;2023-03-14T00:54:27;12.80;;;5.13;;
32826;SDS011;51059;42.058;27.986;2023-03-14T00:56:53;12.20;;;4.70;;
32826;SDS011;51059;42.058;27.986;2023-03-14T00:59:18;6.47;;;3.63;;
32826;SDS011;51059;42.058;27.986;2023-03-14T01:01:44;10.00;;;3.37;;
32826;SDS011;51059;42.058;27.986;2023-03-14T01:04:10;5.63;;;3.17;;
32826;SDS011;51059;42.058;27.986;2023-03-14T01:06:35;6.63;;;3.43;;
32826;SDS011;51059;42.058;27.986;2023-03-14T01:09:01;6.40;;;4.10;;
32826;SDS011;51059;42.058;27.986;2023-03-14T01:11:29;8.43;;;4.47;;
32826;SDS011;51059;42.058;27.986;2023-03-14T01:13:59;7.40;;;3.37;;
32826;SDS011;51059;42.058;27.986;2023-03-14T01:16:26;6.63;;;3.13;;
32826;SDS011;51059;42.058;27.986;2023-03-14T01:18:53;5.80;;;3.03;;
32826;SDS011;51059;42.058;27.986;2023-03-14T01:21:25;6.23;;;3.40;;
32826;SDS011;51059;42.058;27.986;2023-03-14T01:23:55;5.73;;;3.20;;
32826;SDS011;51059;42.058;27.986;2023-03-14T01:26:22;4.50;;;3.00;;
32826;SDS011;51059;42.058;27.986;2023-03-14T01:28:51;5.63;;;3.03;;
32826;SDS011;51059;42.058;27.986;2023-03-14T01:31:18;6.37;;;2.73;;
32826;SDS011;51059;42.058;27.986;2023-03-14T01:33:44;6.00;;;2.90;;
32826;SDS011;51059;42.058;27.986;2023-03-14T01:36:10;5.10;;;2.83;;
32826;SDS011;51059;42.058;27.986;2023-03-14T01:38:37;7.40;;;3.33;;
32826;SDS011;51059;42.058;27.986;2023-03-14T01:41:03;5.53;;;3.47;;
32826;SDS011;51059;42.058;27.986;2023-03-14T01:43:29;7.13;;;3.27;;
32826;SDS011;51059;42.058;27.986;2023-03-14T01:51:05;5.07;;;2.57;;
32826;SDS011;51059;42.058;27.986;2023-03-14T01:53:33;5.40;;;2.67;;
32826;SDS011;51059;42.058;27.986;2023-03-14T01:55:59;6.90;;;2.90;;
32826;SDS011;51059;42.058;27.986;2023-03-14T01:58:25;5.43;;;3.10;;
32826;SDS011;51059;42.058;27.986;2023-03-14T02:00:56;8.33;;;2.37;;
32826;SDS011;51059;42.058;27.986;2023-03-14T02:03:22;4.83;;;2.53;;
32826;SDS011;51059;42.058;27.986;2023-03-14T02:05:49;2.97;;;1.97;;
32826;SDS011;51059;42.058;27.986;2023-03-14T02:08:15;3.00;;;2.13;;
32826;SDS011;51059;42.058;27.986;2023-03-14T02:10:44;3.23;;;1.90;;
32826;SDS011;51059;42.058;27.986;2023-03-14T02:13:12;4.13;;;2.03;;
32826;SDS011;51059;42.058;27.986;2023-03-14T02:15:39;3.50;;;2.20;;
32826;SDS011;51059;42.058;27.986;2023-03-14T02:18:06;3.97;;;2.40;;
32826;SDS011;51059;42.058;27.986;2023-03-14T02:23:15;3.40;;;2.20;;
32826;SDS011;51059;42.058;27.986;2023-03-14T02:25:44;4.10;;;2.40;;
32826;SDS011;51059;42.058;27.986;2023-03-14T02:28:13;4.77;;;2.70;;
32826;SDS011;51059;42.058;27.986;2023-03-14T02:30:39;5.80;;;2.73;;
32826;SDS011;51059;42.058;27.986;2023-03-14T02:33:09;7.87;;;2.80;;
32826;SDS011;51059;42.058;27.986;2023-03-14T02:41:02;4.20;;;2.63;;
32826;SDS011;51059;42.058;27.986;2023-03-14T02:43:28;3.57;;;2.40;;
32826;SDS011;51059;42.058;27.986;2023-03-14T02:45:53;5.47;;;2.20;;
32826;SDS011;51059;42.058;27.986;2023-03-14T02:48:26;6.23;;;2.80;;
32826;SDS011;51059;42.058;27.986;2023-03-14T02:50:56;4.43;;;2.97;;
32826;SDS011;51059;42.058;27.986;2023-03-14T02:53:30;6.37;;;2.57;;
32826;SDS011;51059;42.058;27.986;2023-03-14T02:55:57;4.40;;;2.50;;
32826;SDS011;51059;42.058;27.986;2023-03-14T02:58:23;4.97;;;2.60;;
32826;SDS011;51059;42.058;27.986;2023-03-14T03:00:49;6.23;;;2.53;;
32826;SDS011;51059;42.058;27.986;2023-03-14T03:03:15;5.10;;;2.73;;
32826;SDS011;51059;42.058;27.986;2023-03-14T03:05:40;5.67;;;3.20;;
32826;SDS011;51059;42.058;27.986;2023-03-14T03:08:07;5.87;;;3.03;;
32826;SDS011;51059;42.058;27.986;2023-03-14T03:10:33;3.43;;;2.30;;
32826;SDS011;51059;42.058;27.986;2023-03-14T03:12:59;6.77;;;2.63;;
32826;SDS011;51059;42.058;27.986;2023-03-14T03:15:25;3.57;;;2.50;;
32826;SDS011;51059;42.058;27.986;2023-03-14T03:17:50;5.10;;;2.20;;
32826;SDS011;51059;42.058;27.986;2023-03-14T03:20:16;3.60;;;2.67;;
32826;SDS011;51059;42.058;27.986;2023-03-14T03:22:42;6.17;;;3.07;;
32826;SDS011;51059;42.058;27.986;2023-03-14T03:25:08;5.47;;;3.23;;
32826;SDS011;51059;42.058;27.986;2023-03-14T03:27:34;7.53;;;2.37;;
32826;SDS011;51059;42.058;27.986;2023-03-14T03:30:01;5.00;;;2.87;;
32826;SDS011;51059;42.058;27.986;2023-03-14T03:32:26;2.67;;;2.27;;
32826;SDS011;51059;42.058;27.986;2023-03-14T03:34:52;9.07;;;3.10;;
32826;SDS011;51059;42.058;27.986;2023-03-14T03:37:18;5.27;;;3.30;;
32826;SDS011;51059;42.058;27.986;2023-03-14T03:39:44;5.20;;;3.10;;
32826;SDS011;51059;42.058;27.986;2023-03-14T03:42:09;4.37;;;2.23;;
32826;SDS011;51059;42.058;27.986;2023-03-14T03:44:35;5.60;;;2.57;;
32826;SDS011;51059;42.058;27.986;2023-03-14T03:47:01;5.23;;;2.40;;
32826;SDS011;51059;42.058;27.986;2023-03-14T03:49:30;4.50;;;2.40;;
32826;SDS011;51059;42.058;27.986;2023-03-14T03:51:57;5.33;;;2.27;;
32826;SDS011;51059;42.058;27.986;2023-03-14T03:54:22;5.03;;;2.33;;
32826;SDS011;51059;42.058;27.986;2023-03-14T03:56:48;7.03;;;3.00;;
32826;SDS011;51059;42.058;27.986;2023-03-14T03:59:14;5.60;;;2.93;;
32826;SDS011;51059;42.058;27.986;2023-03-14T04:01:39;6.83;;;3.63;;
32826;SDS011;51059;42.058;27.986;2023-03-14T04:04:05;7.27;;;2.83;;
32826;SDS011;51059;42.058;27.986;2023-03-14T04:06:31;8.27;;;3.50;;
32826;SDS011;51059;42.058;27.986;2023-03-14T04:08:57;8.73;;;2.80;;
32826;SDS011;51059;42.058;27.986;2023-03-14T04:11:23;3.73;;;2.27;;
32826;SDS011;51059;42.058;27.986;2023-03-14T04:13:48;4.77;;;3.07;;
32826;SDS011;51059;42.058;27.986;2023-03-14T04:16:15;4.93;;;3.00;;
32826;SDS011;51059;42.058;27.986;2023-03-14T04:18:42;6.63;;;2.97;;
32826;SDS011;51059;42.058;27.986;2023-03-14T04:21:08;6.60;;;3.57;;
32826;SDS011;51059;42.058;27.986;2023-03-14T04:23:34;5.77;;;2.73;;
32826;SDS011;51059;42.058;27.986;2023-03-14T04:25:59;8.80;;;2.93;;
32826;SDS011;51059;42.058;27.986;2023-03-14T04:28:25;10.37;;;2.83;;
32826;SDS011;51059;42.058;27.986;2023-03-14T04:30:51;4.90;;;3.10;;
32826;SDS011;51059;42.058;27.986;2023-03-14T04:33:16;6.07;;;3.90;;
32826;SDS011;51059;42.058;27.986;2023-03-14T04:35:43;12.27;;;4.90;;
32826;SDS011;51059;42.058;27.986;2023-03-14T04:38:09;8.67;;;4.70;;
32826;SDS011;51059;42.058;27.986;2023-03-14T04:40:39;14.87;;;3.90;;
32826;SDS011;51059;42.058;27.986;2023-03-14T04:43:06;8.33;;;3.80;;
32826;SDS011;51059;42.058;27.986;2023-03-14T04:45:33;8.60;;;3.70;;
32826;SDS011;51059;42.058;27.986;2023-03-14T04:47:58;6.67;;;3.87;;
32826;SDS011;51059;42.058;27.986;2023-03-14T04:50:24;7.67;;;3.57;;
32826;SDS011;51059;42.058;27.986;2023-03-14T04:52:50;4.70;;;3.37;;
32826;SDS011;51059;42.058;27.986;2023-03-14T04:55:15;5.70;;;3.40;;
32826;SDS011;51059;42.058;27.986;2023-03-14T04:57:41;7.10;;;3.80;;
32826;SDS011;51059;42.058;27.986;2023-03-14T05:00:07;5.77;;;3.70;;
32826;SDS011;51059;42.058;27.986;2023-03-14T05:02:33;6.20;;;3.47;;
32826;SDS011;51059;42.058;27.986;2023-03-14T05:04:59;4.67;;;3.07;;
32826;SDS011;51059;42.058;27.986;2023-03-14T05:07:24;7.00;;;3.30;;
32826;SDS011;51059;42.058;27.986;2023-03-14T05:09:50;6.13;;;3.37;;
32826;SDS011;51059;42.058;27.986;2023-03-14T05:12:17;9.90;;;3.73;;
32826;SDS011;51059;42.058;27.986;2023-03-14T05:14:43;4.57;;;3.10;;
32826;SDS011;51059;42.058;27.986;2023-03-14T05:17:09;5.40;;;3.43;;
32826;SDS011;51059;42.058;27.986;2023-03-14T05:19:35;7.90;;;3.90;;
32826;SDS011;51059;42.058;27.986;2023-03-14T05:22:00;6.13;;;3.50;;
32826;SDS011;51059;42.058;27.986;2023-03-14T05:24:26;6.27;;;3.33;;
32826;SDS011;51059;42.058;27.986;2023-03-14T05:26:52;10.57;;;3.23;;
32826;SDS011;51059;42.058;27.986;2023-03-14T05:29:17;7.57;;;3.50;;
32826;SDS011;51059;42.058;27.986;2023-03-14T05:31:43;8.47;;;3.43;;
32826;SDS011;51059;42.058;27.986;2023-03-14T05:34:08;7.20;;;3.63;;
32826;SDS011;51059;42.058;27.986;2023-03-14T05:36:34;5.67;;;3.43;;
32826;SDS011;51059;42.058;27.986;2023-03-14T05:38:59;8.10;;;3.93;;
32826;SDS011;51059;42.058;27.986;2023-03-14T05:41:25;7.87;;;3.43;;
32826;SDS011;51059;42.058;27.986;2023-03-14T05:43:51;9.33;;;4.13;;
32826;SDS011;51059;42.058;27.986;2023-03-14T05:46:16;8.07;;;4.97;;
32826;SDS011;51059;42.058;27.986;2023-03-14T05:48:42;10.90;;;5.90;;
32826;SDS011;51059;42.058;27.986;2023-03-14T05:51:07;15.43;;;6.40;;
32826;SDS011;51059;42.058;27.986;2023-03-14T05:53:33;9.73;;;5.80;;
32826;SDS011;51059;42.058;27.986;2023-03-14T05:55:58;8.27;;;5.07;;
32826;SDS011;51059;42.058;27.986;2023-03-14T05:58:24;7.37;;;5.00;;
32826;SDS011;51059;42.058;27.986;2023-03-14T06:00:50;9.70;;;4.67;;
32826;SDS011;51059;42.058;27.986;2023-03-14T06:03:16;6.73;;;4.30;;
32826;SDS011;51059;42.058;27.986;2023-03-14T06:05:41;9.33;;;4.10;;
32826;SDS011;51059;42.058;27.986;2023-03-14T06:08:07;10.27;;;4.53;;
32826;SDS011;51059;42.058;27.986;2023-03-14T06:10:34;6.83;;;4.00;;
32826;SDS011;51059;42.058;27.986;2023-03-14T06:13:00;9.97;;;4.70;;
32826;SDS011;51059;42.058;27.986;2023-03-14T06:15:26;9.30;;;4.43;;
32826;SDS011;51059;42.058;27.986;2023-03-14T06:17:53;5.47;;;3.80;;
32826;SDS011;51059;42.058;27.986;2023-03-14T06:20:19;5.77;;;3.87;;
32826;SDS011;51059;42.058;27.986;2023-03-14T06:22:45;6.37;;;3.80;;
32826;SDS011;51059;42.058;27.986;2023-03-14T06:25:11;5.80;;;3.10;;
32826;SDS011;51059;42.058;27.986;2023-03-14T06:27:36;4.00;;;2.60;;
32826;SDS011;51059;42.058;27.986;2023-03-14T06:30:02;8.27;;;2.50;;
32826;SDS011;51059;42.058;27.986;2023-03-14T06:32:28;6.17;;;3.43;;
32826;SDS011;51059;42.058;27.986;2023-03-14T06:34:53;9.70;;;4.60;;
32826;SDS011;51059;42.058;27.986;2023-03-14T06:37:19;5.57;;;4.13;;
32826;SDS011;51059;42.058;27.986;2023-03-14T06:39:45;6.70;;;4.03;;
32826;SDS011;51059;42.058;27.986;2023-03-14T06:42:10;6.97;;;4.23;;
32826;SDS011;51059;42.058;27.986;2023-03-14T06:44:36;7.20;;;4.47;;
32826;SDS011;51059;42.058;27.986;2023-03-14T06:47:02;6.20;;;4.17;;
32826;SDS011;51059;42.058;27.986;2023-03-14T06:49:27;6.73;;;3.67;;
32826;SDS011;51059;42.058;27.986;2023-03-14T06:51:53;5.63;;;3.50;;
32826;SDS011;51059;42.058;27.986;2023-03-14T06:54:19;5.97;;;3.00;;
32826;SDS011;51059;42.058;27.986;2023-03-14T06:56:44;7.93;;;3.13;;
32826;SDS011;51059;42.058;27.986;2023-03-14T06:59:10;4.23;;;2.40;;
32826;SDS011;51059;42.058;27.986;2023-03-14T07:01:36;5.70;;;2.80;;
32826;SDS011;51059;42.058;27.986;2023-03-14T07:04:01;4.40;;;2.63;;
32826;SDS011;51059;42.058;27.986;2023-03-14T07:06:27;9.90;;;3.03;;
32826;SDS011;51059;42.058;27.986;2023-03-14T07:08:54;4.73;;;2.60;;
32826;SDS011;51059;42.058;27.986;2023-03-14T07:11:20;4.53;;;2.60;;
32826;SDS011;51059;42.058;27.986;2023-03-14T07:13:47;7.10;;;3.40;;
32826;SDS011;51059;42.058;27.986;2023-03-14T07:16:12;6.93;;;3.30;;
32826;SDS011;51059;42.058;27.986;2023-03-14T07:18:38;6.13;;;3.10;;
32826;SDS011;51059;42.058;27.986;2023-03-14T07:21:07;5.13;;;2.73;;
32826;SDS011;51059;42.058;27.986;2023-03-14T07:23:34;6.93;;;2.67;;
32826;SDS011;51059;42.058;27.986;2023-03-14T07:26:00;4.10;;;2.60;;
32826;SDS011;51059;42.058;27.986;2023-03-14T07:28:26;5.80;;;2.70;;
32826;SDS011;51059;42.058;27.986;2023-03-14T07:30:55;11.43;;;2.50;;
32826;SDS011;51059;42.058;27.986;2023-03-14T07:33:21;7.50;;;2.60;;
32826;SDS011;51059;42.058;27.986;2023-03-14T07:35:47;9.10;;;2.77;;
32826;SDS011;51059;42.058;27.986;2023-03-14T07:38:13;6.47;;;2.57;;
32826;SDS011;51059;42.058;27.986;2023-03-14T07:40:39;7.13;;;2.43;;
32826;SDS011;51059;42.058;27.986;2023-03-14T07:43:05;6.93;;;2.57;;
32826;SDS011;51059;42.058;27.986;2023-03-14T07:45:31;5.37;;;3.10;;
32826;SDS011;51059;42.058;27.986;2023-03-14T07:47:56;6.07;;;3.00;;
32826;SDS011;51059;42.058;27.986;2023-03-14T07:50:23;6.77;;;2.70;;
32826;SDS011;51059;42.058;27.986;2023-03-14T07:52:49;6.60;;;2.80;;
32826;SDS011;51059;42.058;27.986;2023-03-14T07:55:15;6.70;;;3.00;;
32826;SDS011;51059;42.058;27.986;2023-03-14T07:57:40;3.57;;;2.47;;
32826;SDS011;51059;42.058;27.986;2023-03-14T08:00:06;6.80;;;3.07;;
32826;SDS011;51059;42.058;27.986;2023-03-14T08:59:43;5.33;;;4.00;;
32826;SDS011;51059;42.058;27.986;2023-03-14T09:02:10;8.43;;;3.80;;
32826;SDS011;51059;42.058;27.986;2023-03-14T09:04:36;6.70;;;3.67;;
32826;SDS011;51059;42.058;27.986;2023-03-14T09:07:02;11.30;;;4.90;;
32826;SDS011;51059;42.058;27.986;2023-03-14T09:09:28;14.27;;;5.00;;
32826;SDS011;51059;42.058;27.986;2023-03-14T09:11:55;9.53;;;4.60;;
32826;SDS011;51059;42.058;27.986;2023-03-14T09:14:21;17.00;;;12.53;;
32826;SDS011;51059;42.058;27.986;2023-03-14T09:16:47;9.97;;;7.53;;
32826;SDS011;51059;42.058;27.986;2023-03-14T09:19:12;7.10;;;4.90;;
32826;SDS011;51059;42.058;27.986;2023-03-14T09:30:29;10.60;;;5.17;;
32826;SDS011;51059;42.058;27.986;2023-03-14T09:32:55;10.63;;;4.90;;
32826;SDS011;51059;42.058;27.986;2023-03-14T09:35:22;6.43;;;4.80;;
32826;SDS011;51059;42.058;27.986;2023-03-14T09:37:47;7.13;;;4.57;;
32826;SDS011;51059;42.058;27.986;2023-03-14T09:40:15;10.70;;;4.73;;
32826;SDS011;51059;42.058;27.986;2023-03-14T09:42:41;6.70;;;3.63;;
32826;SDS011;51059;42.058;27.986;2023-03-14T09:45:11;6.37;;;3.27;;
32826;SDS011;51059;42.058;27.986;2023-03-14T09:47:41;7.30;;;4.03;;
32826;SDS011;51059;42.058;27.986;2023-03-14T09:50:13;9.57;;;3.80;;
32826;SDS011;51059;42.058;27.986;2023-03-14T09:52:41;7.40;;;3.90;;
32826;SDS011;51059;42.058;27.986;2023-03-14T09:55:20;6.00;;;3.60;;
32826;SDS011;51059;42.058;27.986;2023-03-14T09:57:47;4.83;;;3.43;;
32826;SDS011;51059;42.058;27.986;2023-03-14T10:00:16;5.80;;;3.33;;
32826;SDS011;51059;42.058;27.986;2023-03-14T10:02:55;10.83;;;3.23;;
32826;SDS011;51059;42.058;27.986;2023-03-14T10:05:23;6.93;;;3.73;;
32826;SDS011;51059;42.058;27.986;2023-03-14T10:07:49;6.43;;;3.40;;
32826;SDS011;51059;42.058;27.986;2023-03-14T10:10:23;7.00;;;3.47;;
32826;SDS011;51059;42.058;27.986;2023-03-14T10:13:32;7.17;;;3.23;;
32826;SDS011;51059;42.058;27.986;2023-03-14T10:15:53;5.20;;;3.10;;
32826;SDS011;51059;42.058;27.986;2023-03-14T10:18:27;4.93;;;2.50;;
32826;SDS011;51059;42.058;27.986;2023-03-14T10:21:16;6.73;;;2.90;;
32826;SDS011;51059;42.058;27.986;2023-03-14T10:23:46;7.80;;;3.00;;
32826;SDS011;51059;42.058;27.986;2023-03-14T10:26:13;4.70;;;2.67;;
32826;SDS011;51059;42.058;27.986;2023-03-14T10:28:45;10.17;;;2.80;;
32826;SDS011;51059;42.058;27.986;2023-03-14T10:31:18;6.70;;;2.87;;
32826;SDS011;51059;42.058;27.986;2023-03-14T10:33:57;7.73;;;2.80;;
32826;SDS011;51059;42.058;27.986;2023-03-14T10:36:26;7.10;;;2.70;;
32826;SDS011;51059;42.058;27.986;2023-03-14T10:41:46;6.93;;;2.30;;
32826;SDS011;51059;42.058;27.986;2023-03-14T10:44:19;6.97;;;2.30;;
32826;SDS011;51059;42.058;27.986;2023-03-14T10:46:52;5.70;;;2.70;;
32826;SDS011;51059;42.058;27.986;2023-03-14T10:49:30;6.90;;;2.70;;
32826;SDS011;51059;42.058;27.986;2023-03-14T10:52:00;3.93;;;2.60;;
32826;SDS011;51059;42.058;27.986;2023-03-14T10:54:29;7.20;;;3.00;;
32826;SDS011;51059;42.058;27.986;2023-03-14T10:56:56;7.10;;;2.80;;
32826;SDS011;51059;42.058;27.986;2023-03-14T10:59:23;4.60;;;2.80;;
32826;SDS011;51059;42.058;27.986;2023-03-14T11:07:10;6.73;;;3.00;;
32826;SDS011;51059;42.058;27.986;2023-03-14T11:09:50;5.77;;;3.10;;
32826;SDS011;51059;42.058;27.986;2023-03-14T11:12:40;4.13;;;2.57;;
32826;SDS011;51059;42.058;27.986;2023-03-14T11:15:32;6.47;;;2.57;;
32826;SDS011;51059;42.058;27.986;2023-03-14T11:21:05;3.10;;;2.47;;
32826;SDS011;51059;42.058;27.986;2023-03-14T11:31:57;6.70;;;2.87;;
32826;SDS011;51059;42.058;27.986;2023-03-14T11:34:29;4.97;;;2.83;;
32826;SDS011;51059;42.058;27.986;2023-03-14T11:37:05;7.67;;;2.60;;
32826;SDS011;51059;42.058;27.986;2023-03-14T11:39:37;8.50;;;2.83;;
32826;SDS011;51059;42.058;27.986;2023-03-14T11:42:04;9.37;;;2.67;;
32826;SDS011;51059;42.058;27.986;2023-03-14T11:44:37;6.50;;;2.90;;
32826;SDS011;51059;42.058;27.986;2023-03-14T11:47:14;5.40;;;2.73;;
32826;SDS011;51059;42.058;27.986;2023-03-14T11:49:45;6.10;;;2.57;;
32826;SDS011;51059;42.058;27.986;2023-03-14T11:55:05;5.93;;;3.00;;
32826;SDS011;51059;42.058;27.986;2023-03-14T11:57:35;6.57;;;2.40;;
32826;SDS011;51059;42.058;27.986;2023-03-14T12:02:54;6.13;;;3.00;;
32826;SDS011;51059;42.058;27.986;2023-03-14T12:13:53;3.50;;;2.40;;
32826;SDS011;51059;42.058;27.986;2023-03-14T12:16:22;8.57;;;2.90;;
32826;SDS011;51059;42.058;27.986;2023-03-14T12:18:52;5.17;;;2.73;;
32826;SDS011;51059;42.058;27.986;2023-03-14T12:21:18;4.13;;;2.63;;
32826;SDS011;51059;42.058;27.986;2023-03-14T12:23:48;3.70;;;2.30;;
32826;SDS011;51059;42.058;27.986;2023-03-14T12:26:19;3.50;;;2.50;;
32826;SDS011;51059;42.058;27.986;2023-03-14T12:29:09;4.37;;;2.40;;
32826;SDS011;51059;42.058;27.986;2023-03-14T12:31:47;5.67;;;2.63;;
32826;SDS011;51059;42.058;27.986;2023-03-14T12:34:31;3.97;;;2.30;;
32826;SDS011;51059;42.058;27.986;2023-03-14T12:39:53;6.07;;;2.30;;
32826;SDS011;51059;42.058;27.986;2023-03-14T12:42:45;2.83;;;2.07;;
32826;SDS011;51059;42.058;27.986;2023-03-14T12:50:36;5.30;;;2.10;;
32826;SDS011;51059;42.058;27.986;2023-03-14T13:01:25;2.53;;;1.50;;
32826;SDS011;51059;42.058;27.986;2023-03-14T13:03:51;3.07;;;1.70;;
32826;SDS011;51059;42.058;27.986;2023-03-14T13:10:13;6.07;;;1.90;;
32826;SDS011;51059;42.058;27.986;2023-03-14T13:12:16;9.93;;;2.10;;
32826;SDS011;51059;42.058;27.986;2023-03-14T13:14:44;3.47;;;1.97;;
32826;SDS011;51059;42.058;27.986;2023-03-14T13:17:14;4.77;;;2.00;;
32826;SDS011;51059;42.058;27.986;2023-03-14T13:19:41;3.80;;;1.87;;
32826;SDS011;51059;42.058;27.986;2023-03-14T13:22:20;2.37;;;1.70;;
32826;SDS011;51059;42.058;27.986;2023-03-14T13:24:48;4.27;;;1.73;;
32826;SDS011;51059;42.058;27.986;2023-03-14T13:27:18;5.60;;;2.60;;
32826;SDS011;51059;42.058;27.986;2023-03-14T13:29:45;5.10;;;2.07;;
32826;SDS011;51059;42.058;27.986;2023-03-14T13:32:20;5.60;;;2.20;;
32826;SDS011;51059;42.058;27.986;2023-03-14T13:34:47;6.83;;;1.93;;
32826;SDS011;51059;42.058;27.986;2023-03-14T13:37:17;3.60;;;2.00;;
32826;SDS011;51059;42.058;27.986;2023-03-14T13:39:49;7.27;;;2.10;;
32826;SDS011;51059;42.058;27.986;2023-03-14T13:42:20;8.00;;;2.00;;
32826;SDS011;51059;42.058;27.986;2023-03-14T13:44:46;6.13;;;2.13;;
32826;SDS011;51059;42.058;27.986;2023-03-14T13:47:17;5.33;;;2.20;;
32826;SDS011;51059;42.058;27.986;2023-03-14T13:49:44;11.43;;;2.30;;
32826;SDS011;51059;42.058;27.986;2023-03-14T13:52:23;5.20;;;1.80;;
32826;SDS011;51059;42.058;27.986;2023-03-14T13:54:55;4.93;;;2.10;;
32826;SDS011;51059;42.058;27.986;2023-03-14T13:57:22;5.93;;;2.30;;
32826;SDS011;51059;42.058;27.986;2023-03-14T13:59:58;6.07;;;2.13;;
32826;SDS011;51059;42.058;27.986;2023-03-14T14:02:26;4.03;;;2.20;;
32826;SDS011;51059;42.058;27.986;2023-03-14T14:04:52;7.83;;;2.40;;
32826;SDS011;51059;42.058;27.986;2023-03-14T14:07:18;4.37;;;1.97;;
32826;SDS011;51059;42.058;27.986;2023-03-14T14:09:50;6.40;;;2.40;;
32826;SDS011;51059;42.058;27.986;2023-03-14T14:12:18;7.17;;;2.40;;
32826;SDS011;51059;42.058;27.986;2023-03-14T14:15:02;6.83;;;1.93;;
32826;SDS011;51059;42.058;27.986;2023-03-14T14:17:35;7.03;;;2.10;;
32826;SDS011;51059;42.058;27.986;2023-03-14T14:20:02;4.83;;;2.23;;
32826;SDS011;51059;42.058;27.986;2023-03-14T14:22:30;6.23;;;2.30;;
32826;SDS011;51059;42.058;27.986;2023-03-14T14:24:57;2.80;;;2.03;;
32826;SDS011;51059;42.058;27.986;2023-03-14T14:27:39;4.93;;;2.40;;
32826;SDS011;51059;42.058;27.986;2023-03-14T14:32:42;4.97;;;2.43;;
32826;SDS011;51059;42.058;27.986;2023-03-14T14:35:08;7.70;;;2.40;;
32826;SDS011;51059;42.058;27.986;2023-03-14T14:37:43;6.00;;;2.80;;
32826;SDS011;51059;42.058;27.986;2023-03-14T14:40:22;6.50;;;2.03;;
32826;SDS011;51059;42.058;27.986;2023-03-14T14:42:49;4.90;;;2.13;;
32826;SDS011;51059;42.058;27.986;2023-03-14T14:45:17;8.40;;;2.60;;
32826;SDS011;51059;42.058;27.986;2023-03-14T14:53:25;3.50;;;2.20;;
32826;SDS011;51059;42.058;27.986;2023-03-14T14:55:54;7.40;;;2.10;;
32826;SDS011;51059;42.058;27.986;2023-03-14T14:58:26;7.07;;;2.53;;
32826;SDS011;51059;42.058;27.986;2023-03-14T15:03:22;14.60;;;2.67;;
32826;SDS011;51059;42.058;27.986;2023-03-14T15:05:51;7.17;;;2.67;;
32826;SDS011;51059;42.058;27.986;2023-03-14T15:08:20;12.27;;;2.67;;
32826;SDS011;51059;42.058;27.986;2023-03-14T15:10:45;4.90;;;2.17;;
32826;SDS011;51059;42.058;27.986;2023-03-14T15:13:11;12.17;;;2.50;;
32826;SDS011;51059;42.058;27.986;2023-03-14T15:15:36;12.43;;;2.20;;
32826;SDS011;51059;42.058;27.986;2023-03-14T15:18:07;11.30;;;2.83;;
32826;SDS011;51059;42.058;27.986;2023-03-14T15:20:37;5.50;;;2.30;;
32826;SDS011;51059;42.058;27.986;2023-03-14T15:23:04;7.50;;;2.20;;
32826;SDS011;51059;42.058;27.986;2023-03-14T15:25:34;5.13;;;2.53;;
32826;SDS011;51059;42.058;27.986;2023-03-14T15:27:59;9.20;;;2.37;;
32826;SDS011;51059;42.058;27.986;2023-03-14T15:30:25;3.80;;;2.47;;
32826;SDS011;51059;42.058;27.986;2023-03-14T15:32:51;4.60;;;2.40;;
32826;SDS011;51059;42.058;27.986;2023-03-14T15:35:16;7.10;;;2.50;;
32826;SDS011;51059;42.058;27.986;2023-03-14T15:37:42;4.33;;;2.33;;
32826;SDS011;51059;42.058;27.986;2023-03-14T15:40:09;8.60;;;2.30;;
32826;SDS011;51059;42.058;27.986;2023-03-14T15:42:39;6.63;;;2.83;;
32826;SDS011;51059;42.058;27.986;2023-03-14T15:45:05;6.53;;;2.43;;
32826;SDS011;51059;42.058;27.986;2023-03-14T15:47:32;13.07;;;2.70;;
32826;SDS011;51059;42.058;27.986;2023-03-14T15:49:57;7.80;;;2.53;;
32826;SDS011;51059;42.058;27.986;2023-03-14T15:52:23;14.13;;;3.10;;
32826;SDS011;51059;42.058;27.986;2023-03-14T15:54:49;9.60;;;3.00;;
32826;SDS011;51059;42.058;27.986;2023-03-14T15:57:15;8.43;;;2.97;;
32826;SDS011;51059;42.058;27.986;2023-03-14T15:59:40;8.57;;;2.80;;
32826;SDS011;51059;42.058;27.986;2023-03-14T16:02:06;6.10;;;2.90;;
32826;SDS011;51059;42.058;27.986;2023-03-14T16:04:31;6.70;;;3.07;;
32826;SDS011;51059;42.058;27.986;2023-03-14T16:06:57;6.87;;;2.67;;
32826;SDS011;51059;42.058;27.986;2023-03-14T16:09:22;12.70;;;2.80;;
32826;SDS011;51059;42.058;27.986;2023-03-14T16:11:49;6.73;;;2.80;;
32826;SDS011;51059;42.058;27.986;2023-03-14T16:14:15;6.73;;;3.00;;
32826;SDS011;51059;42.058;27.986;2023-03-14T16:16:40;17.27;;;3.13;;
32826;SDS011;51059;42.058;27.986;2023-03-14T16:19:06;10.07;;;2.83;;
32826;SDS011;51059;42.058;27.986;2023-03-14T16:21:32;5.43;;;2.47;;
32826;SDS011;51059;42.058;27.986;2023-03-14T16:23:58;7.87;;;3.50;;
32826;SDS011;51059;42.058;27.986;2023-03-14T16:26:24;7.33;;;2.77;;
32826;SDS011;51059;42.058;27.986;2023-03-14T16:28:50;7.73;;;2.40;;
32826;SDS011;51059;42.058;27.986;2023-03-14T16:31:17;5.33;;;2.20;;
32826;SDS011;51059;42.058;27.986;2023-03-14T16:33:45;4.37;;;2.40;;
32826;SDS011;51059;42.058;27.986;2023-03-14T16:36:11;7.80;;;2.80;;
32826;SDS011;51059;42.058;27.986;2023-03-14T16:38:39;8.00;;;2.67;;
32826;SDS011;51059;42.058;27.986;2023-03-14T16:43:33;6.23;;;2.50;;
32826;SDS011;51059;42.058;27.986;2023-03-14T16:46:01;6.03;;;2.80;;
32826;SDS011;51059;42.058;27.986;2023-03-14T16:48:27;9.73;;;2.83;;
32826;SDS011;51059;42.058;27.986;2023-03-14T16:50:53;5.40;;;2.60;;
32826;SDS011;51059;42.058;27.986;2023-03-14T16:53:19;6.57;;;2.60;;
32826;SDS011;51059;42.058;27.986;2023-03-14T16:55:45;7.33;;;2.80;;
32826;SDS011;51059;42.058;27.986;2023-03-14T16:58:10;4.77;;;2.67;;
32826;SDS011;51059;42.058;27.986;2023-03-14T17:00:36;8.00;;;3.40;;
32826;SDS011;51059;42.058;27.986;2023-03-14T17:03:03;4.23;;;2.40;;